Pasadena — V2FA7 — position and weather

sailwx.info

Track history (hours):
 
Tides and Currents Weather Stations Pressure Air Temp Water Temp Dewpoint Dewpoint Depression Visibility Wind Speed Wind Dir Waves Ship Positions

Pasadena

Last reported at 2017-Dec-10 09:08 UTC. Time now 2017-Dec-11 15:22 UTC.
Position N 45°59' W 001°07'.

Length 90 m; draft 4.5 m.

Type: Cargo ship. MMSI: 304228000.

Date/timePositionNaut miles runAvg speedWind from/ knotsBaromVisibWave heightAir tempDewpointWater temp
2017-Dec-10 09:08N 45°59' W 001°07'310.8
2017-Dec-10 08:50N 46°00' W 001°11'411.1
2017-Dec-10 08:31N 46°03' W 001°14'1 1.3
2017-Dec-10 08:00N 46°04' W 001°13'0 0.1
2017-Dec-10 07:22N 46°04' W 001°14'0 0.0
2017-Dec-10 06:58N 46°04' W 001°14'0 0.0
2017-Dec-10 05:49N 46°04' W 001°14'0 0.0
2017-Dec-10 05:25N 46°04' W 001°14'0 0.0
2017-Dec-10 04:58N 46°04' W 001°14'0 0.0
2017-Dec-10 04:25N 46°04' W 001°14'0 0.0
2017-Dec-10 03:58N 46°04' W 001°14'0 0.0
2017-Dec-10 03:25N 46°04' W 001°14'0 0.0
2017-Dec-10 02:55N 46°04' W 001°14'0 0.1
2017-Dec-10 02:28N 46°04' W 001°14'0 0.1
2017-Dec-10 01:58N 46°04' W 001°14'0 0.0
2017-Dec-10 01:28N 46°04' W 001°14'0 0.0
2017-Dec-10 00:58N 46°04' W 001°14'0 0.1
2017-Dec-10 00:31N 46°04' W 001°14'2 4.6
2017-Dec-10 00:00N 46°06' W 001°16'5 9.5
2017-Dec-09 23:31N 46°06' W 001°23'5 9.2
2017-Dec-09 23:01N 46°07' W 001°29'4 8.5
2017-Dec-09 22:30N 46°07' W 001°36'  
2017-Dec-01 17:52N 53°21' W 006°08'3 0.1
2017-Nov-30 19:30N 53°21' W 006°12'0 0.0
2017-Nov-30 16:36N 53°21' W 006°12'0 0.0
2017-Nov-30 16:06N 53°21' W 006°12'0 0.0
2017-Nov-30 10:57N 53°21' W 006°12'  
Track history (hours):
 
Tides and Currents Weather Stations Pressure Air Temp Water Temp Dewpoint Dewpoint Depression Visibility Wind Speed Wind Dir Waves Ship Positions

Pasadena

Last reported at 2017-Dec-10 09:08 UTC. Time now 2017-Dec-11 15:22 UTC.
Position N 45°59' W 001°07'.

Length 90 m; draft 4.5 m.

Type: Cargo ship. MMSI: 304228000.

Date/timePositionNaut miles runAvg speedWind from/ knotsBaromVisibWave heightAir tempDewpointWater temp
2017-Dec-10 09:08N 45°59' W 001°07'310.8
2017-Dec-10 08:50N 46°00' W 001°11'411.1
2017-Dec-10 08:31N 46°03' W 001°14'1 1.3
2017-Dec-10 08:00N 46°04' W 001°13'0 0.1
2017-Dec-10 07:22N 46°04' W 001°14'0 0.0
2017-Dec-10 06:58N 46°04' W 001°14'0 0.0
2017-Dec-10 05:49N 46°04' W 001°14'0 0.0
2017-Dec-10 05:25N 46°04' W 001°14'0 0.0
2017-Dec-10 04:58N 46°04' W 001°14'0 0.0
2017-Dec-10 04:25N 46°04' W 001°14'0 0.0
2017-Dec-10 03:58N 46°04' W 001°14'0 0.0
2017-Dec-10 03:25N 46°04' W 001°14'0 0.0
2017-Dec-10 02:55N 46°04' W 001°14'0 0.1
2017-Dec-10 02:28N 46°04' W 001°14'0 0.1
2017-Dec-10 01:58N 46°04' W 001°14'0 0.0
2017-Dec-10 01:28N 46°04' W 001°14'0 0.0
2017-Dec-10 00:58N 46°04' W 001°14'0 0.1
2017-Dec-10 00:31N 46°04' W 001°14'2 4.6
2017-Dec-10 00:00N 46°06' W 001°16'5 9.5
2017-Dec-09 23:31N 46°06' W 001°23'5 9.2
2017-Dec-09 23:01N 46°07' W 001°29'4 8.5
2017-Dec-09 22:30N 46°07' W 001°36'  
2017-Dec-01 17:52N 53°21' W 006°08'3 0.1
2017-Nov-30 19:30N 53°21' W 006°12'0 0.0
2017-Nov-30 16:36N 53°21' W 006°12'0 0.0
2017-Nov-30 16:06N 53°21' W 006°12'0 0.0
2017-Nov-30 10:57N 53°21' W 006°12'  

Dump ship's entire track history